createdAt,value
2018-10-02T00:01:20.092Z,9.35
2018-10-02T00:03:48.258Z,10.82
2018-10-02T00:06:16.409Z,11.68
2018-10-02T00:08:44.591Z,11.35
2018-10-02T00:11:18.299Z,10.55
2018-10-02T00:13:51.816Z,10.55
2018-10-02T00:16:19.986Z,9.35
2018-10-02T00:18:48.064Z,9.13
2018-10-02T00:21:16.114Z,9.13
2018-10-02T00:23:44.192Z,8.08
2018-10-02T00:26:12.253Z,8.55
2018-10-02T00:28:40.436Z,7.45
2018-10-02T00:31:09.768Z,8.50
2018-10-02T00:33:37.817Z,7.60
2018-10-02T00:36:05.969Z,6.30
2018-10-02T00:38:34.071Z,6.35
2018-10-02T00:41:02.228Z,4.70
2018-10-02T00:43:30.325Z,6.00
2018-10-02T00:45:58.465Z,6.58
2018-10-02T00:48:26.548Z,7.40
2018-10-02T00:50:54.632Z,5.83
2018-10-02T00:53:22.984Z,5.17
2018-10-02T00:55:51.210Z,5.10
2018-10-02T00:58:19.239Z,6.40
2018-10-02T01:00:47.445Z,6.00
2018-10-02T01:03:15.612Z,5.70
2018-10-02T01:05:43.684Z,5.80
2018-10-02T01:08:11.800Z,5.70
2018-10-02T01:10:40.364Z,7.17
2018-10-02T01:13:08.440Z,7.60
2018-10-02T01:15:36.465Z,8.48
2018-10-02T01:18:04.975Z,7.12
2018-10-02T01:20:33.327Z,7.03
2018-10-02T01:23:01.668Z,8.25
2018-10-02T01:25:29.704Z,7.67
2018-10-02T01:27:57.769Z,8.68
2018-10-02T01:30:25.953Z,9.20
2018-10-02T01:32:53.999Z,8.43
2018-10-02T01:35:22.208Z,9.17
2018-10-02T01:37:50.462Z,8.95
2018-10-02T01:40:18.771Z,9.85
2018-10-02T01:42:46.888Z,8.80
2018-10-02T01:45:15.049Z,8.70
2018-10-02T01:47:43.294Z,9.33
2018-10-02T01:50:11.660Z,11.05
2018-10-02T01:52:39.741Z,9.65
2018-10-02T01:55:07.935Z,9.20
2018-10-02T01:57:36.097Z,8.98
2018-10-02T02:00:04.728Z,13.10
2018-10-02T02:02:32.882Z,9.83
2018-10-02T02:05:01.103Z,10.93
2018-10-02T02:07:29.296Z,12.60
2018-10-02T02:09:57.388Z,10.38
2018-10-02T02:12:25.525Z,9.83
2018-10-02T02:14:53.837Z,11.55
2018-10-02T02:17:21.920Z,11.55
2018-10-02T02:19:50.002Z,11.45
2018-10-02T02:22:18.149Z,11.60
2018-10-02T02:24:46.323Z,11.70
2018-10-02T02:27:14.400Z,12.80
2018-10-02T02:29:42.568Z,12.45
2018-10-02T02:32:10.851Z,13.05
2018-10-02T02:34:39.036Z,11.60
2018-10-02T02:37:07.330Z,11.08
2018-10-02T02:39:35.345Z,10.80
2018-10-02T02:42:03.765Z,10.87
2018-10-02T02:44:31.976Z,12.40
2018-10-02T02:47:05.564Z,13.50
2018-10-02T02:49:39.241Z,10.65
2018-10-02T02:52:07.503Z,11.20
2018-10-02T02:54:35.596Z,12.63
2018-10-02T02:57:04.040Z,15.28
2018-10-02T02:59:32.354Z,11.05
2018-10-02T03:02:00.438Z,12.70
2018-10-02T03:04:28.495Z,11.28
2018-10-02T03:06:56.860Z,11.38
2018-10-02T03:09:24.940Z,12.20
2018-10-02T03:11:53.096Z,12.00
2018-10-02T03:14:21.304Z,14.73
2018-10-02T03:16:49.472Z,11.28
2018-10-02T03:19:17.552Z,13.28
2018-10-02T03:21:45.967Z,14.18
2018-10-02T03:24:13.976Z,16.23
2018-10-02T03:26:45.143Z,11.05
2018-10-02T03:29:16.403Z,12.50
2018-10-02T03:31:48.135Z,13.88
2018-10-02T03:34:25.450Z,13.20
2018-10-02T03:36:56.461Z,12.57
2018-10-02T03:39:27.831Z,14.55
2018-10-02T03:42:00.062Z,16.42
2018-10-02T03:44:32.172Z,12.07
2018-10-02T03:47:03.714Z,13.15
2018-10-02T03:49:35.453Z,12.55
2018-10-02T03:52:07.565Z,11.43
2018-10-02T03:54:39.099Z,16.73
2018-10-02T03:57:10.939Z,13.30
2018-10-02T03:59:42.495Z,12.95
2018-10-02T04:02:13.948Z,13.43
2018-10-02T04:04:45.408Z,14.13
2018-10-02T04:07:16.763Z,12.00
2018-10-02T04:09:45.029Z,13.13
2018-10-02T04:12:13.125Z,12.25
2018-10-02T04:14:41.291Z,11.55
2018-10-02T04:17:09.592Z,14.70
2018-10-02T04:19:37.677Z,14.45
2018-10-02T04:22:05.808Z,14.93
2018-10-02T04:24:34.005Z,12.47
2018-10-02T04:27:02.167Z,12.23
2018-10-02T04:29:30.266Z,12.50
2018-10-02T04:31:58.515Z,13.15
2018-10-02T04:34:26.609Z,13.45
2018-10-02T04:36:54.660Z,13.77
2018-10-02T04:39:22.863Z,11.40
2018-10-02T04:41:50.895Z,14.07
2018-10-02T04:44:19.112Z,15.40
2018-10-02T04:46:47.349Z,14.40
2018-10-02T04:49:15.558Z,15.05
2018-10-02T04:51:43.756Z,14.63
2018-10-02T04:54:11.800Z,13.93
2018-10-02T04:56:39.861Z,16.65
2018-10-02T04:59:08.895Z,17.67
2018-10-02T05:01:36.944Z,20.20
2018-10-02T05:04:05.093Z,17.52
2018-10-02T05:06:33.191Z,16.75
2018-10-02T05:09:01.346Z,13.13
2018-10-02T05:11:29.637Z,13.45
2018-10-02T05:13:57.756Z,15.75
2018-10-02T05:16:25.800Z,16.02
2018-10-02T05:18:53.947Z,14.87
2018-10-02T05:21:22.165Z,18.32
2018-10-02T05:23:50.198Z,14.87
2018-10-02T05:26:18.558Z,12.78
2018-10-02T05:28:46.672Z,14.73
2018-10-02T05:31:14.749Z,18.20
2018-10-02T05:33:42.807Z,14.18
2018-10-02T05:36:10.939Z,12.88
2018-10-02T05:38:38.951Z,11.68
2018-10-02T05:41:07.068Z,15.08
2018-10-02T05:43:35.076Z,13.98
2018-10-02T05:46:03.391Z,15.72
2018-10-02T05:48:31.559Z,15.03
2018-10-02T05:50:59.736Z,15.58
2018-10-02T05:53:27.838Z,15.30
2018-10-02T05:55:55.973Z,16.07
2018-10-02T05:58:24.336Z,15.90
2018-10-02T06:00:52.540Z,14.10
2018-10-02T06:03:20.612Z,16.00
2018-10-02T06:05:48.870Z,13.55
2018-10-02T06:08:17.056Z,15.98
2018-10-02T06:10:45.345Z,14.63
2018-10-02T06:13:13.525Z,16.23
2018-10-02T06:15:41.706Z,14.95
2018-10-02T06:18:09.784Z,16.15
2018-10-02T06:20:37.941Z,14.20
2018-10-02T06:23:06.185Z,14.30
2018-10-02T06:25:34.301Z,13.25
2018-10-02T06:28:02.470Z,14.45
2018-10-02T06:30:30.625Z,16.75
2018-10-02T06:32:58.547Z,11.90
2018-10-02T06:35:26.593Z,13.53
2018-10-02T06:37:54.741Z,13.93
2018-10-02T06:40:22.751Z,12.73
2018-10-02T06:42:50.778Z,11.12
2018-10-02T06:45:19.011Z,12.00
2018-10-02T06:47:47.039Z,14.98
2018-10-02T06:50:15.228Z,12.28
2018-10-02T06:52:43.413Z,12.47
2018-10-02T06:55:11.585Z,11.33
2018-10-02T06:57:39.736Z,13.27
2018-10-02T07:00:07.929Z,13.58
2018-10-02T07:02:36.039Z,15.55
2018-10-02T07:05:04.189Z,10.00
2018-10-02T07:07:32.341Z,14.87
2018-10-02T07:10:00.573Z,12.03
2018-10-02T07:12:28.734Z,12.30
2018-10-02T07:14:56.838Z,11.12
2018-10-02T07:17:24.956Z,12.53
2018-10-02T07:19:53.130Z,11.68
2018-10-02T07:22:21.222Z,15.50
2018-10-02T07:24:49.491Z,11.85
2018-10-02T07:27:18.003Z,11.05
2018-10-02T07:29:45.910Z,11.38
2018-10-02T07:32:14.109Z,11.22
2018-10-02T07:34:42.406Z,9.95
2018-10-02T07:37:10.580Z,12.45
2018-10-02T07:39:38.625Z,10.85
2018-10-02T07:42:06.907Z,15.45
2018-10-02T07:44:34.881Z,10.60
2018-10-02T07:47:02.941Z,11.20
2018-10-02T07:49:31.307Z,11.30
2018-10-02T07:51:59.495Z,10.98
2018-10-02T07:54:27.591Z,12.78
2018-10-02T07:56:55.763Z,13.20
2018-10-02T07:59:23.958Z,12.68
2018-10-02T08:01:51.995Z,13.28
2018-10-02T08:04:20.072Z,11.93
2018-10-02T08:06:48.136Z,10.40
2018-10-02T08:09:16.349Z,10.38
2018-10-02T08:11:44.422Z,11.37
2018-10-02T08:14:12.485Z,14.80
2018-10-02T08:16:40.540Z,13.00
2018-10-02T08:19:08.795Z,12.70
2018-10-02T08:21:37.065Z,8.58
2018-10-02T08:24:05.230Z,10.55
2018-10-02T08:26:33.475Z,10.88
2018-10-02T08:29:01.529Z,10.28
2018-10-02T08:31:29.714Z,9.43
2018-10-02T08:33:57.754Z,9.93
2018-10-02T08:36:26.091Z,8.73
2018-10-02T08:38:54.221Z,10.23
2018-10-02T08:41:22.613Z,8.45
2018-10-02T08:43:50.847Z,7.45
2018-10-02T08:46:18.965Z,8.33
2018-10-02T08:48:47.210Z,8.33
2018-10-02T08:51:15.438Z,7.90
2018-10-02T08:53:43.611Z,7.40
2018-10-02T08:56:11.567Z,7.20
2018-10-02T08:58:39.722Z,9.90
2018-10-02T09:01:08.362Z,6.15
2018-10-02T09:03:36.372Z,8.03
2018-10-02T09:06:04.453Z,7.15
2018-10-02T09:08:32.516Z,8.10
2018-10-02T09:11:00.848Z,7.50
2018-10-02T09:13:28.869Z,11.15
2018-10-02T09:15:57.235Z,9.05
2018-10-02T09:18:25.368Z,9.83
2018-10-02T09:20:53.798Z,11.15
2018-10-02T09:23:21.997Z,9.28
2018-10-02T09:25:50.158Z,9.95
2018-10-02T09:28:18.411Z,8.63
2018-10-02T09:30:52.025Z,9.78
2018-10-02T09:33:25.819Z,9.53
2018-10-02T09:35:59.203Z,7.80
2018-10-02T09:38:32.992Z,8.75
2018-10-02T09:41:06.612Z,8.70
2018-10-02T09:43:49.798Z,7.53
2018-10-02T09:46:18.064Z,7.12
2018-10-02T09:48:46.193Z,8.17
2018-10-02T09:51:14.242Z,9.93
2018-10-02T09:53:42.378Z,7.55
2018-10-02T09:56:10.469Z,7.00
2018-10-02T09:58:38.590Z,8.73
2018-10-02T10:01:11.281Z,7.10
2018-10-02T10:03:39.384Z,6.95
2018-10-02T10:06:07.575Z,7.77
2018-10-02T10:08:35.762Z,6.30
2018-10-02T10:11:03.916Z,5.37
2018-10-02T10:13:32.081Z,8.30
2018-10-02T10:16:00.273Z,8.63
2018-10-02T10:18:28.468Z,7.83
2018-10-02T10:20:56.518Z,5.40
2018-10-02T10:23:24.705Z,6.53
2018-10-02T10:25:52.870Z,5.83
2018-10-02T10:28:21.009Z,6.12
2018-10-02T10:30:49.240Z,6.10
2018-10-02T10:33:17.417Z,4.40
2018-10-02T10:35:45.444Z,4.35
2018-10-02T10:38:13.554Z,5.28
2018-10-02T10:40:41.813Z,4.58
2018-10-02T10:43:09.708Z,5.03
2018-10-02T10:45:37.729Z,4.10
2018-10-02T10:48:05.826Z,5.10
2018-10-02T10:50:33.912Z,5.00
2018-10-02T10:53:02.039Z,4.60
2018-10-02T10:55:32.737Z,4.07
2018-10-02T10:58:00.799Z,3.77
2018-10-02T11:00:28.970Z,5.00
2018-10-02T11:02:57.283Z,4.33
2018-10-02T11:05:25.368Z,4.47
2018-10-02T11:07:53.467Z,4.45
2018-10-02T11:10:21.568Z,5.05
2018-10-02T11:12:49.751Z,5.12
2018-10-02T11:15:18.982Z,4.80
2018-10-02T11:17:47.036Z,5.57
2018-10-02T11:20:46.147Z,4.50
2018-10-02T11:23:14.166Z,4.75
2018-10-02T11:25:42.479Z,3.52
2018-10-02T11:28:10.546Z,5.37
2018-10-02T11:30:38.772Z,4.67
2018-10-02T11:33:06.883Z,4.87
2018-10-02T11:35:35.116Z,5.25
2018-10-02T11:38:03.239Z,5.83
2018-10-02T11:40:31.296Z,4.37
2018-10-02T11:42:59.399Z,3.58
2018-10-02T11:45:27.657Z,6.37
2018-10-02T11:47:55.720Z,5.47
2018-10-02T11:50:24.012Z,4.62
2018-10-02T11:52:52.100Z,5.12
2018-10-02T11:55:20.175Z,5.83
2018-10-02T11:57:48.392Z,5.42
2018-10-02T12:00:16.542Z,6.00
2018-10-02T12:02:44.567Z,5.30
2018-10-02T12:05:12.658Z,3.50
2018-10-02T12:07:40.717Z,5.03
2018-10-02T12:10:08.932Z,5.73
2018-10-02T12:12:36.961Z,4.15
2018-10-02T12:15:05.184Z,2.67
2018-10-02T12:17:33.403Z,4.72
2018-10-02T12:20:01.905Z,3.40
2018-10-02T12:22:29.783Z,3.77
2018-10-02T12:24:57.956Z,5.33
2018-10-02T12:27:26.130Z,6.83
2018-10-02T12:29:54.201Z,5.03
2018-10-02T12:32:22.276Z,3.67
2018-10-02T12:34:50.336Z,4.50
2018-10-02T12:37:18.533Z,4.90
2018-10-02T12:39:46.610Z,6.58
2018-10-02T12:42:14.765Z,4.47
2018-10-02T12:44:43.072Z,6.53
2018-10-02T12:47:11.073Z,4.60
2018-10-02T12:49:39.297Z,5.03
2018-10-02T12:52:07.502Z,3.72
2018-10-02T12:54:35.548Z,6.60
2018-10-02T12:57:03.705Z,5.12
2018-10-02T12:59:31.850Z,4.40
2018-10-02T13:01:59.852Z,5.17
2018-10-02T13:04:28.048Z,3.58
2018-10-02T13:06:56.690Z,5.58
2018-10-02T13:09:24.907Z,7.50
2018-10-02T13:11:52.986Z,5.90
2018-10-02T13:14:21.134Z,6.00
2018-10-02T13:16:49.343Z,4.90
2018-10-02T13:19:17.386Z,5.65
2018-10-02T13:21:45.486Z,7.00
2018-10-02T13:24:13.532Z,4.12
2018-10-02T13:26:41.832Z,5.53
2018-10-02T13:29:09.977Z,4.03
2018-10-02T13:31:38.373Z,7.20
2018-10-02T13:34:06.453Z,6.50
2018-10-02T13:36:34.718Z,6.60
2018-10-02T13:39:03.168Z,4.87
2018-10-02T13:41:31.177Z,4.80
2018-10-02T13:43:59.285Z,4.08
2018-10-02T13:46:27.422Z,5.33
2018-10-02T13:48:55.632Z,4.55
2018-10-02T13:51:23.677Z,4.50
2018-10-02T13:53:51.783Z,3.98
2018-10-02T13:56:19.912Z,6.20
2018-10-02T13:58:48.233Z,8.20
2018-10-02T14:01:16.354Z,3.90
2018-10-02T14:03:44.335Z,4.60
2018-10-02T14:06:12.537Z,4.17
2018-10-02T14:08:40.573Z,4.67
2018-10-02T14:11:08.816Z,5.17
2018-10-02T14:13:37.046Z,4.28
2018-10-02T14:16:05.241Z,7.08
2018-10-02T14:18:33.377Z,5.05
2018-10-02T14:21:01.699Z,5.30
2018-10-02T14:23:29.762Z,8.40
2018-10-02T14:25:57.952Z,4.60
2018-10-02T14:28:26.049Z,5.40
2018-10-02T14:30:54.056Z,4.65
2018-10-02T14:33:22.271Z,4.78
2018-10-02T14:35:50.300Z,5.20
2018-10-02T14:38:18.513Z,5.65
2018-10-02T14:40:46.668Z,4.00
2018-10-02T14:43:14.754Z,4.53
2018-10-02T14:45:44.405Z,3.40
2018-10-02T14:48:12.570Z,4.60
2018-10-02T14:50:40.624Z,3.55
2018-10-02T14:53:08.794Z,4.70
2018-10-02T14:55:37.053Z,5.40
2018-10-02T14:58:08.111Z,4.08
2018-10-02T15:00:39.300Z,4.23
2018-10-02T15:03:10.643Z,3.35
2018-10-02T15:05:42.118Z,4.78
2018-10-02T15:08:13.607Z,5.53
2018-10-02T15:10:45.508Z,5.67
2018-10-02T15:13:17.482Z,3.75
2018-10-02T15:15:49.383Z,4.93
2018-10-02T15:18:21.006Z,3.70
2018-10-02T15:20:52.820Z,2.70
2018-10-02T15:23:24.379Z,3.55
2018-10-02T15:25:56.178Z,3.77
2018-10-02T15:28:50.706Z,4.40
2018-10-02T15:31:19.547Z,3.50
2018-10-02T15:33:50.781Z,4.30
2018-10-02T15:36:21.745Z,5.12
2018-10-02T15:38:52.646Z,5.12
2018-10-02T15:41:24.023Z,3.75
2018-10-02T15:43:55.354Z,5.22
2018-10-02T15:46:26.902Z,3.33
2018-10-02T15:48:58.206Z,3.27
2018-10-02T15:51:29.614Z,5.67
2018-10-02T15:54:02.181Z,5.08
2018-10-02T15:56:33.385Z,4.23
2018-10-02T15:59:04.620Z,3.52
2018-10-02T16:01:41.112Z,4.05
2018-10-02T16:04:12.406Z,3.15
2018-10-02T16:06:44.440Z,6.12
2018-10-02T16:09:17.084Z,3.80
2018-10-02T16:11:48.656Z,3.20
2018-10-02T16:14:20.454Z,5.40
2018-10-02T16:16:54.196Z,7.72
2018-10-02T16:19:25.623Z,4.53
2018-10-02T16:21:57.172Z,4.20
2018-10-02T16:24:29.378Z,5.17
2018-10-02T16:27:01.773Z,4.33
2018-10-02T16:29:34.468Z,4.10
2018-10-02T16:32:06.111Z,5.10
2018-10-02T16:34:48.981Z,6.35
2018-10-02T16:37:11.790Z,3.72
2018-10-02T16:39:44.154Z,4.08
2018-10-02T16:42:16.530Z,5.90
2018-10-02T16:44:47.678Z,3.50
2018-10-02T16:47:18.697Z,6.20
2018-10-02T16:49:50.063Z,5.95
2018-10-02T16:52:21.647Z,4.08
2018-10-02T16:54:53.319Z,4.20
2018-10-02T16:57:24.673Z,4.20
2018-10-02T16:59:55.977Z,5.35
2018-10-02T17:02:27.682Z,4.55
2018-10-02T17:04:59.383Z,4.70
2018-10-02T17:07:31.383Z,4.20
2018-10-02T17:10:03.567Z,5.87
2018-10-02T17:12:35.635Z,4.50
2018-10-02T17:15:07.466Z,6.37
2018-10-02T17:17:38.689Z,4.55
2018-10-02T17:20:10.539Z,6.40
2018-10-02T17:22:42.226Z,6.22
2018-10-02T17:25:14.019Z,6.53
2018-10-02T17:27:47.150Z,3.92
2018-10-02T17:30:18.443Z,5.30
2018-10-02T17:32:49.559Z,6.80
2018-10-02T17:35:21.011Z,6.40
2018-10-02T17:37:52.326Z,5.47
2018-10-02T17:40:24.005Z,5.05
2018-10-02T17:42:55.526Z,4.00
2018-10-02T17:45:27.122Z,3.70
2018-10-02T17:47:58.910Z,4.87
2018-10-02T17:50:30.891Z,5.12
2018-10-02T17:53:02.756Z,4.37
2018-10-02T17:55:35.773Z,6.03
2018-10-02T17:58:08.806Z,4.08
2018-10-02T18:00:41.781Z,8.70
2018-10-02T18:03:13.495Z,5.00
2018-10-02T18:05:44.651Z,4.90
2018-10-02T18:08:16.089Z,5.15
2018-10-02T18:10:47.544Z,5.58
2018-10-02T18:13:18.923Z,3.72
2018-10-02T18:15:50.047Z,5.08
2018-10-02T18:18:21.300Z,4.67
2018-10-02T18:20:52.388Z,4.10
2018-10-02T18:23:23.811Z,4.58
2018-10-02T18:25:55.116Z,4.55
2018-10-02T18:28:26.590Z,4.22
2018-10-02T18:30:58.886Z,4.63
2018-10-02T18:33:30.516Z,6.00
2018-10-02T18:36:02.277Z,3.57
2018-10-02T18:38:34.129Z,4.95
2018-10-02T18:41:05.148Z,4.72
2018-10-02T18:43:37.281Z,3.67
2018-10-02T18:46:08.095Z,3.17
2018-10-02T18:48:39.935Z,3.40
2018-10-02T18:51:11.861Z,7.62
2018-10-02T18:56:28.481Z,3.62
2018-10-02T18:58:59.594Z,5.97
2018-10-02T19:01:30.909Z,5.47
2018-10-02T19:04:02.430Z,5.72
2018-10-02T19:06:34.501Z,4.45
2018-10-02T19:09:17.811Z,4.35
2018-10-02T19:11:54.794Z,4.30
2018-10-02T19:14:27.233Z,4.47
2018-10-02T19:16:59.231Z,7.83
2018-10-02T19:19:35.665Z,5.25
2018-10-02T19:22:07.433Z,5.47
2018-10-02T19:24:39.472Z,4.87
2018-10-02T19:27:12.076Z,4.85
2018-10-02T19:29:43.865Z,4.53
2018-10-02T19:32:17.688Z,4.50
2018-10-02T19:34:49.187Z,5.20
2018-10-02T19:38:28.910Z,5.45
2018-10-02T19:41:00.572Z,4.27
2018-10-02T19:43:32.012Z,4.30
2018-10-02T19:46:08.451Z,5.95
2018-10-02T19:48:39.821Z,5.35
2018-10-02T19:51:16.453Z,3.30
2018-10-02T19:53:48.411Z,6.05
2018-10-02T19:56:20.138Z,4.92
2018-10-02T19:58:52.418Z,2.98
2018-10-02T20:01:24.366Z,4.62
2018-10-02T20:03:56.696Z,3.55
2018-10-02T20:06:28.694Z,5.87
2018-10-02T20:09:00.460Z,3.67
2018-10-02T20:11:32.383Z,3.33
2018-10-02T20:14:04.283Z,5.45
2018-10-02T20:16:36.434Z,5.12
2018-10-02T20:19:08.390Z,4.60
2018-10-02T20:21:40.404Z,5.33
2018-10-02T20:24:12.068Z,5.50
2018-10-02T20:26:44.239Z,4.53
2018-10-02T20:29:15.965Z,3.60
2018-10-02T20:31:49.742Z,3.95
2018-10-02T20:34:21.485Z,4.50
2018-10-02T20:36:53.317Z,3.27
2018-10-02T20:39:25.367Z,4.50
2018-10-02T20:41:57.482Z,3.40
2018-10-02T20:44:29.837Z,3.30
2018-10-02T20:47:01.617Z,5.97
2018-10-02T20:49:33.317Z,4.70
2018-10-02T20:52:05.606Z,4.70
2018-10-02T20:54:37.274Z,6.77
2018-10-02T20:57:09.018Z,6.60
2018-10-02T20:59:41.503Z,4.85
2018-10-02T21:02:13.442Z,4.50
2018-10-02T21:04:45.348Z,4.22
2018-10-02T21:07:17.527Z,3.90
2018-10-02T21:09:49.423Z,4.40
2018-10-02T21:12:21.486Z,5.30
2018-10-02T21:14:53.179Z,5.85
2018-10-02T21:17:24.919Z,4.47
2018-10-02T21:19:56.298Z,4.80
2018-10-02T21:22:27.933Z,4.28
2018-10-02T21:24:59.728Z,5.12
2018-10-02T21:27:31.658Z,4.58
2018-10-02T21:30:04.011Z,4.97
2018-10-02T21:32:35.972Z,6.43
2018-10-02T21:35:07.798Z,8.45
2018-10-02T21:37:39.910Z,5.80
2018-10-02T21:40:12.231Z,5.50
2018-10-02T21:42:43.979Z,7.00
2018-10-02T21:45:16.129Z,6.70
2018-10-02T21:47:47.884Z,5.30
2018-10-02T21:50:19.949Z,5.20
2018-10-02T21:52:52.047Z,7.12
2018-10-02T21:55:23.885Z,5.60
2018-10-02T21:57:55.673Z,6.78
2018-10-02T22:00:28.436Z,6.10
2018-10-02T22:03:00.469Z,6.50
2018-10-02T22:05:31.910Z,8.10
2018-10-02T22:08:03.888Z,7.20
2018-10-02T22:10:35.543Z,5.45
2018-10-02T22:13:07.764Z,5.70
2018-10-02T22:15:39.190Z,6.95
2018-10-02T22:18:10.804Z,5.40
2018-10-02T22:20:42.390Z,6.47
2018-10-02T22:23:13.837Z,7.15
2018-10-02T22:25:45.445Z,5.45
2018-10-02T22:28:16.838Z,6.35
2018-10-02T22:30:48.440Z,6.35
2018-10-02T22:33:20.291Z,6.47
2018-10-02T22:35:52.424Z,6.20
2018-10-02T22:38:24.667Z,6.12
2018-10-02T22:40:56.795Z,6.72
2018-10-02T22:43:28.688Z,7.40
2018-10-02T22:46:00.573Z,6.95
2018-10-02T22:48:31.903Z,5.60
2018-10-02T22:51:03.943Z,6.70
2018-10-02T22:53:35.891Z,6.12
2018-10-02T22:56:07.823Z,6.70
2018-10-02T22:58:39.825Z,6.08
2018-10-02T23:01:11.870Z,6.70
2018-10-02T23:03:43.413Z,5.42
2018-10-02T23:06:15.936Z,7.00
2018-10-02T23:08:47.656Z,5.15
2018-10-02T23:11:19.097Z,6.85
2018-10-02T23:13:50.987Z,5.47
2018-10-02T23:16:23.063Z,5.95
2018-10-02T23:18:55.142Z,5.70
2018-10-02T23:21:27.012Z,6.55
2018-10-02T23:23:58.725Z,6.87
2018-10-02T23:26:30.735Z,5.83
2018-10-02T23:29:02.954Z,5.65
2018-10-02T23:31:34.853Z,6.00
2018-10-02T23:34:06.708Z,5.20
2018-10-02T23:36:38.793Z,5.10
2018-10-02T23:39:11.984Z,5.10
2018-10-02T23:41:43.201Z,5.70
2018-10-02T23:44:15.296Z,7.30
2018-10-02T23:46:48.226Z,5.62
2018-10-02T23:49:20.239Z,5.75
2018-10-02T23:51:52.235Z,9.70
2018-10-02T23:54:24.410Z,6.10
2018-10-02T23:56:56.091Z,5.60
2018-10-02T23:59:27.921Z,5.22
